createdAt,value
2019-03-08T00:01:10.856Z,87.60
2019-03-08T00:03:38.328Z,87.40
2019-03-08T00:06:07.211Z,87.40
2019-03-08T00:08:40.588Z,87.40
2019-03-08T00:11:28.122Z,87.60
2019-03-08T00:13:55.664Z,87.30
2019-03-08T00:16:23.236Z,87.40
2019-03-08T00:18:50.723Z,87.60
2019-03-08T00:21:18.459Z,87.70
2019-03-08T00:23:45.963Z,87.80
2019-03-08T00:26:13.465Z,87.80
2019-03-08T00:28:40.980Z,88.50
2019-03-08T00:31:10.184Z,87.80
2019-03-08T00:33:37.940Z,88.10
2019-03-08T00:36:05.432Z,88.30
2019-03-08T00:38:32.949Z,88.20
2019-03-08T00:41:00.457Z,88.50
2019-03-08T00:43:27.932Z,88.20
2019-03-08T00:45:55.439Z,88.20
2019-03-08T00:48:22.912Z,88.20
2019-03-08T00:50:50.730Z,88.00
2019-03-08T00:53:18.377Z,88.30
2019-03-08T00:55:52.965Z,88.10
2019-03-08T00:58:25.122Z,88.00
2019-03-08T01:00:54.677Z,88.00
2019-03-08T01:03:22.245Z,87.70
2019-03-08T01:05:49.865Z,87.80
2019-03-08T01:08:17.329Z,87.70
2019-03-08T01:10:44.895Z,88.00
2019-03-08T01:13:12.345Z,88.10
2019-03-08T01:15:40.127Z,88.10
2019-03-08T01:18:07.597Z,88.50
2019-03-08T01:20:35.113Z,89.00
2019-03-08T01:23:02.905Z,89.40
2019-03-08T01:25:30.538Z,89.70
2019-03-08T01:28:06.710Z,90.10
2019-03-08T01:30:34.595Z,90.30
2019-03-08T01:33:02.062Z,90.30
2019-03-08T01:35:29.668Z,90.40
2019-03-08T01:37:57.526Z,90.70
2019-03-08T01:40:25.046Z,90.70
2019-03-08T01:42:52.533Z,90.80
2019-03-08T01:45:19.984Z,91.20
2019-03-08T01:47:47.919Z,90.80
2019-03-08T01:50:15.692Z,90.90
2019-03-08T01:52:43.407Z,90.90
2019-03-08T01:55:11.296Z,91.00
2019-03-08T01:57:38.779Z,91.00
2019-03-08T02:00:08.470Z,91.30
2019-03-08T02:02:36.006Z,91.60
2019-03-08T02:05:04.432Z,91.30
2019-03-08T02:07:33.274Z,91.40
2019-03-08T02:10:00.801Z,91.50
2019-03-08T02:12:28.705Z,91.60
2019-03-08T02:14:56.251Z,91.60
2019-03-08T02:17:28.967Z,91.60
2019-03-08T02:19:56.493Z,91.60
2019-03-08T02:22:24.076Z,91.80
2019-03-08T02:24:51.980Z,91.80
2019-03-08T02:27:19.824Z,91.90
2019-03-08T02:29:48.082Z,92.00
2019-03-08T02:32:15.937Z,92.20
2019-03-08T02:34:43.612Z,92.30
2019-03-08T02:37:11.082Z,92.40
2019-03-08T02:39:38.836Z,92.50
2019-03-08T02:42:06.336Z,92.60
2019-03-08T02:44:33.873Z,92.60
2019-03-08T02:47:01.399Z,92.50
2019-03-08T02:49:28.855Z,92.40
2019-03-08T02:51:56.319Z,92.50
2019-03-08T02:54:24.012Z,92.60
2019-03-08T02:56:51.460Z,92.80
2019-03-08T02:59:18.937Z,92.80
2019-03-08T03:01:46.452Z,93.00
2019-03-08T03:04:14.408Z,93.10
2019-03-08T03:06:41.839Z,93.10
2019-03-08T03:09:09.488Z,93.00
2019-03-08T03:11:37.325Z,93.00
2019-03-08T03:14:05.201Z,93.00
2019-03-08T03:16:35.717Z,93.10
2019-03-08T03:19:04.255Z,93.20
2019-03-08T03:21:32.236Z,93.20
2019-03-08T03:24:09.644Z,93.20
2019-03-08T03:26:37.415Z,93.40
2019-03-08T03:29:05.349Z,93.30
2019-03-08T03:31:33.622Z,93.50
2019-03-08T03:34:01.635Z,93.50
2019-03-08T03:36:29.672Z,93.50
2019-03-08T03:38:57.648Z,93.50
2019-03-08T03:41:28.056Z,93.50
2019-03-08T03:43:55.985Z,93.50
2019-03-08T03:46:23.773Z,93.60
2019-03-08T03:48:51.837Z,93.70
2019-03-08T03:51:19.694Z,93.80
2019-03-08T03:53:48.018Z,93.90
2019-03-08T03:56:16.242Z,93.90
2019-03-08T03:58:44.108Z,93.80
2019-03-08T04:01:28.113Z,93.80
2019-03-08T04:03:55.997Z,93.90
2019-03-08T04:06:26.575Z,93.90
2019-03-08T04:08:56.957Z,93.90
2019-03-08T04:11:26.033Z,94.00
2019-03-08T04:13:53.938Z,93.90
2019-03-08T04:16:21.510Z,93.80
2019-03-08T04:18:49.944Z,93.80
2019-03-08T04:21:17.791Z,93.80
2019-03-08T04:23:45.816Z,93.80
2019-03-08T04:26:13.639Z,94.10
2019-03-08T04:28:41.694Z,94.10
2019-03-08T04:31:10.969Z,94.10
2019-03-08T04:33:39.022Z,94.10
2019-03-08T04:36:06.911Z,94.00
2019-03-08T04:38:35.762Z,94.10
2019-03-08T04:41:04.342Z,94.50
2019-03-08T04:43:32.254Z,94.30
2019-03-08T04:46:00.202Z,94.50
2019-03-08T04:48:28.135Z,94.60
2019-03-08T04:50:56.166Z,94.50
2019-03-08T04:53:24.501Z,94.50
2019-03-08T04:55:53.155Z,94.50
2019-03-08T04:58:29.166Z,94.50
2019-03-08T05:00:56.955Z,94.70
2019-03-08T05:03:27.914Z,95.00
2019-03-08T05:05:55.824Z,95.10
2019-03-08T05:08:23.731Z,95.20
2019-03-08T05:10:51.753Z,95.40
2019-03-08T05:13:19.940Z,95.40
2019-03-08T05:15:48.586Z,96.00
2019-03-08T05:18:16.532Z,96.30
2019-03-08T05:20:44.843Z,96.60
2019-03-08T05:23:12.852Z,96.40
2019-03-08T05:25:40.799Z,96.70
2019-03-08T05:28:08.712Z,96.90
2019-03-08T05:30:36.742Z,97.20
2019-03-08T05:33:04.665Z,97.40
2019-03-08T05:35:32.884Z,97.80
2019-03-08T05:38:00.873Z,97.70
2019-03-08T05:40:29.131Z,97.80
2019-03-08T05:42:56.884Z,97.90
2019-03-08T05:45:24.517Z,98.30
2019-03-08T05:47:52.668Z,98.40
2019-03-08T05:50:20.361Z,98.30
2019-03-08T05:52:48.192Z,98.50
2019-03-08T05:55:15.884Z,98.10
2019-03-08T05:57:43.622Z,98.30
2019-03-08T06:00:11.767Z,98.50
2019-03-08T06:02:39.297Z,98.50
2019-03-08T06:05:07.002Z,98.50
2019-03-08T06:07:35.203Z,98.60
2019-03-08T06:10:05.269Z,98.50
2019-03-08T06:12:32.950Z,98.70
2019-03-08T06:15:00.778Z,98.80
2019-03-08T06:17:28.393Z,98.80
2019-03-08T06:19:56.105Z,98.90
2019-03-08T06:22:23.728Z,98.90
2019-03-08T06:24:51.949Z,99.00
2019-03-08T06:27:19.556Z,98.90
2019-03-08T06:29:47.331Z,98.60
2019-03-08T06:32:14.859Z,98.50
2019-03-08T06:34:42.400Z,98.30
2019-03-08T06:37:10.173Z,98.20
2019-03-08T06:39:37.935Z,98.30
2019-03-08T06:42:05.646Z,98.30
2019-03-08T06:44:33.264Z,98.30
2019-03-08T06:47:01.237Z,98.20
2019-03-08T06:49:29.412Z,98.30
2019-03-08T06:52:03.538Z,98.40
2019-03-08T06:54:31.098Z,98.20
2019-03-08T06:56:58.920Z,97.90
2019-03-08T06:59:37.202Z,98.00
2019-03-08T07:02:06.020Z,98.20
2019-03-08T07:04:33.658Z,97.70
2019-03-08T07:07:01.369Z,97.70
2019-03-08T07:09:29.357Z,97.70
2019-03-08T07:11:56.969Z,97.70
2019-03-08T07:14:24.838Z,97.50
2019-03-08T07:16:52.443Z,97.30
2019-03-08T07:19:20.026Z,96.90
2019-03-08T07:22:00.356Z,96.80
2019-03-08T07:24:50.503Z,96.90
2019-03-08T07:27:36.221Z,96.50
2019-03-08T07:30:24.366Z,96.60
2019-03-08T07:33:12.445Z,96.00
2019-03-08T07:36:05.536Z,96.30
2019-03-08T07:39:04.928Z,95.90
2019-03-08T07:41:41.901Z,95.90
2019-03-08T07:44:38.329Z,95.50
2019-03-08T07:47:24.741Z,95.40
2019-03-08T07:50:21.081Z,94.90
2019-03-08T07:53:11.310Z,94.80
2019-03-08T07:55:56.933Z,94.50
2019-03-08T07:58:50.091Z,93.80
2019-03-08T08:01:37.318Z,93.50
2019-03-08T08:04:11.956Z,93.70
2019-03-08T08:07:02.254Z,93.70
2019-03-08T08:09:54.204Z,93.30
2019-03-08T08:12:38.251Z,92.80
2019-03-08T08:15:24.325Z,92.90
2019-03-08T08:18:01.121Z,92.80
2019-03-08T08:21:03.169Z,92.90
2019-03-08T08:23:45.608Z,93.20
2019-03-08T08:26:32.930Z,93.30
2019-03-08T08:29:11.794Z,92.70
2019-03-08T08:32:04.620Z,92.80
2019-03-08T08:35:00.537Z,91.80
2019-03-08T08:37:56.933Z,92.00
2019-03-08T08:40:53.045Z,91.50
2019-03-08T08:43:39.453Z,91.40
2019-03-08T08:46:16.703Z,91.40
2019-03-08T08:49:03.896Z,92.00
2019-03-08T08:51:49.813Z,91.90
2019-03-08T08:54:49.523Z,92.10
2019-03-08T08:57:39.336Z,92.40
2019-03-08T09:00:27.846Z,92.40
2019-03-08T09:03:04.242Z,92.30
2019-03-08T09:05:42.799Z,92.20
2019-03-08T09:08:21.375Z,91.80
2019-03-08T09:11:05.712Z,91.80
2019-03-08T09:13:46.384Z,92.20
2019-03-08T09:16:45.722Z,91.90
2019-03-08T09:19:41.063Z,92.40
2019-03-08T09:22:27.017Z,91.80
2019-03-08T09:25:10.158Z,91.20
2019-03-08T09:28:06.288Z,92.00
2019-03-08T09:31:02.641Z,90.90
2019-03-08T09:33:35.388Z,90.60
2019-03-08T09:36:18.185Z,90.90
2019-03-08T09:39:08.082Z,90.30
2019-03-08T09:41:55.092Z,90.10
2019-03-08T09:44:45.013Z,90.00
2019-03-08T09:47:38.585Z,90.00
2019-03-08T09:50:15.765Z,89.50
2019-03-08T09:53:05.763Z,89.90
2019-03-08T09:55:58.576Z,89.80
2019-03-08T09:58:48.385Z,89.90
2019-03-08T10:01:41.502Z,89.70
2019-03-08T10:04:21.813Z,88.70
2019-03-08T10:07:08.205Z,88.10
2019-03-08T10:09:45.029Z,88.60
2019-03-08T10:12:34.973Z,87.90
2019-03-08T10:15:28.063Z,87.70
2019-03-08T10:18:31.208Z,87.90
2019-03-08T10:21:17.073Z,87.60
2019-03-08T10:24:10.777Z,90.10
2019-03-08T10:26:56.909Z,90.40
2019-03-08T10:29:49.993Z,90.80
2019-03-08T10:32:40.397Z,91.00
2019-03-08T10:35:23.819Z,90.30
2019-03-08T10:38:22.373Z,88.80
2019-03-08T10:41:44.010Z,89.30
2019-03-08T10:44:34.490Z,88.70
2019-03-08T10:47:09.769Z,87.10
2019-03-08T10:50:02.857Z,86.20
2019-03-08T10:52:58.696Z,85.20
2019-03-08T10:55:46.068Z,83.30
2019-03-08T10:58:25.912Z,81.40
2019-03-08T11:01:31.021Z,81.60
2019-03-08T11:04:06.672Z,81.40
2019-03-08T11:06:51.385Z,80.90
2019-03-08T11:09:44.332Z,79.30
2019-03-08T11:12:30.622Z,77.90
2019-03-08T11:15:27.379Z,78.10
2019-03-08T11:18:17.812Z,75.40
2019-03-08T11:21:05.318Z,74.00
2019-03-08T11:23:55.891Z,74.70
2019-03-08T11:26:43.332Z,70.90
2019-03-08T11:29:36.145Z,71.10
2019-03-08T11:32:38.408Z,70.50
2019-03-08T11:35:25.014Z,70.40
2019-03-08T11:38:04.296Z,71.40
2019-03-08T11:41:00.100Z,72.20
2019-03-08T11:43:47.412Z,72.30
2019-03-08T11:46:29.893Z,72.60
2019-03-08T11:49:17.613Z,71.90
2019-03-08T11:52:08.234Z,72.60
2019-03-08T11:54:54.410Z,73.00
2019-03-08T11:57:31.380Z,74.60
2019-03-08T12:00:17.393Z,72.90
2019-03-08T12:03:07.861Z,71.50
2019-03-08T12:05:54.409Z,70.60
2019-03-08T12:08:47.228Z,71.20
2019-03-08T12:11:33.564Z,70.20
2019-03-08T12:14:37.747Z,71.60
2019-03-08T12:17:23.806Z,72.70
2019-03-08T12:20:01.135Z,72.10
2019-03-08T12:23:00.408Z,72.40
2019-03-08T12:25:54.345Z,72.00
2019-03-08T12:28:50.786Z,73.30
2019-03-08T12:31:35.294Z,74.70
2019-03-08T12:34:25.405Z,73.20
2019-03-08T12:37:05.693Z,72.20
2019-03-08T12:39:45.457Z,73.00
2019-03-08T12:42:35.964Z,72.50
2019-03-08T12:45:24.295Z,73.00
2019-03-08T12:48:07.987Z,71.10
2019-03-08T12:50:49.073Z,71.90
2019-03-08T12:53:33.042Z,70.90
2019-03-08T12:56:38.822Z,72.60
2019-03-08T12:59:25.080Z,73.50
2019-03-08T13:02:07.193Z,74.00
2019-03-08T13:04:49.085Z,73.30
2019-03-08T13:07:44.392Z,73.30
2019-03-08T13:10:13.672Z,73.80
2019-03-08T13:12:42.427Z,73.30
2019-03-08T13:15:13.826Z,73.10
2019-03-08T13:17:48.746Z,73.10
2019-03-08T13:20:17.780Z,72.90
2019-03-08T13:22:47.970Z,73.50
2019-03-08T13:25:17.157Z,73.50
2019-03-08T13:27:45.393Z,73.50
2019-03-08T13:30:16.772Z,73.90
2019-03-08T13:32:47.704Z,72.30
2019-03-08T13:35:15.599Z,71.90
2019-03-08T13:37:43.693Z,71.70
2019-03-08T13:40:12.806Z,70.00
2019-03-08T13:42:41.009Z,69.20
2019-03-08T13:45:11.301Z,68.40
2019-03-08T13:47:38.878Z,68.70
2019-03-08T13:50:08.713Z,67.50
2019-03-08T13:52:36.652Z,67.70
2019-03-08T13:55:05.697Z,68.00
2019-03-08T13:57:33.372Z,68.60
2019-03-08T14:00:00.857Z,69.00
2019-03-08T14:02:28.809Z,69.10
2019-03-08T14:04:56.704Z,67.90
2019-03-08T14:07:24.494Z,68.90
2019-03-08T14:09:52.533Z,69.10
2019-03-08T14:12:22.182Z,69.00
2019-03-08T14:14:50.283Z,69.40
2019-03-08T14:17:18.891Z,69.50
2019-03-08T14:19:46.706Z,68.60
2019-03-08T14:22:14.740Z,68.50
2019-03-08T14:24:43.494Z,68.50
2019-03-08T14:27:13.931Z,69.50
2019-03-08T14:29:42.150Z,69.00
2019-03-08T14:32:14.241Z,68.90
2019-03-08T14:34:49.615Z,68.40
2019-03-08T14:37:19.856Z,67.90
2019-03-08T14:39:47.429Z,68.30
2019-03-08T14:42:40.476Z,64.70
2019-03-08T14:45:19.841Z,63.40
2019-03-08T14:47:49.995Z,62.80
2019-03-08T14:50:18.265Z,63.50
2019-03-08T14:52:45.846Z,64.70
2019-03-08T14:55:23.905Z,65.00
2019-03-08T14:57:55.346Z,64.40
2019-03-08T15:00:28.619Z,63.30
2019-03-08T15:02:54.884Z,64.10
2019-03-08T15:05:22.703Z,64.30
2019-03-08T15:07:50.297Z,65.30
2019-03-08T15:10:19.088Z,64.90
2019-03-08T15:12:49.529Z,65.60
2019-03-08T15:15:17.280Z,65.90
2019-03-08T15:17:44.788Z,65.70
2019-03-08T15:20:15.296Z,65.00
2019-03-08T15:22:43.412Z,62.50
2019-03-08T15:25:12.644Z,61.30
2019-03-08T15:27:41.405Z,61.30
2019-03-08T15:30:11.462Z,61.90
2019-03-08T15:32:39.404Z,62.70
2019-03-08T15:35:08.635Z,62.00
2019-03-08T15:37:43.958Z,62.20
2019-03-08T15:40:09.259Z,63.10
2019-03-08T15:42:38.073Z,63.20
2019-03-08T15:45:07.038Z,63.20
2019-03-08T15:47:36.185Z,62.20
2019-03-08T15:50:08.320Z,63.00
2019-03-08T15:52:36.204Z,62.70
2019-03-08T15:55:04.932Z,59.70
2019-03-08T15:57:32.492Z,57.50
2019-03-08T16:00:00.415Z,57.40
2019-03-08T16:02:28.713Z,58.10
2019-03-08T16:04:56.928Z,58.20
2019-03-08T16:07:27.143Z,58.30
2019-03-08T16:09:54.752Z,58.30
2019-03-08T16:12:22.953Z,59.30
2019-03-08T16:14:51.192Z,59.20
2019-03-08T16:17:26.620Z,60.80
2019-03-08T16:19:58.780Z,60.40
2019-03-08T16:22:28.643Z,60.80
2019-03-08T16:24:57.183Z,61.80
2019-03-08T16:27:25.631Z,62.50
2019-03-08T16:29:53.643Z,62.20
2019-03-08T16:32:38.343Z,62.90
2019-03-08T16:35:06.243Z,62.80
2019-03-08T16:37:51.852Z,63.00
2019-03-08T16:40:34.588Z,63.40
2019-03-08T16:43:20.564Z,63.90
2019-03-08T16:46:00.881Z,64.40
2019-03-08T16:48:43.838Z,64.70
2019-03-08T16:51:34.514Z,65.00
2019-03-08T16:54:37.662Z,65.60
2019-03-08T16:57:35.525Z,65.40
2019-03-08T17:00:44.812Z,65.80
2019-03-08T17:07:03.464Z,66.40
2019-03-08T17:10:33.245Z,66.70
2019-03-08T17:13:34.316Z,66.80
2019-03-08T17:19:29.560Z,67.10
2019-03-08T17:22:15.940Z,66.40
2019-03-08T17:25:05.936Z,67.50
2019-03-08T17:27:46.834Z,67.60
2019-03-08T17:30:33.896Z,67.60
2019-03-08T17:33:38.181Z,67.60
2019-03-08T17:37:25.755Z,67.50
2019-03-08T17:40:19.558Z,67.50
2019-03-08T17:43:17.046Z,67.80
2019-03-08T17:45:51.969Z,67.80
2019-03-08T17:48:39.281Z,67.90
2019-03-08T17:51:17.460Z,68.90
2019-03-08T17:54:31.786Z,68.00
2019-03-08T17:57:49.478Z,67.70
2019-03-08T18:04:45.510Z,67.90
2019-03-08T18:07:43.769Z,67.70
2019-03-08T18:10:52.492Z,67.50
2019-03-08T18:17:59.344Z,67.70
2019-03-08T18:20:36.786Z,67.80
2019-03-08T18:23:21.180Z,67.90
2019-03-08T18:25:56.019Z,68.20
2019-03-08T18:28:38.319Z,69.10
2019-03-08T18:31:25.942Z,69.20
2019-03-08T18:34:17.886Z,69.80
2019-03-08T18:37:35.968Z,70.10
2019-03-08T18:56:38.536Z,73.10
2019-03-08T19:02:57.496Z,74.20
2019-03-08T19:56:49.132Z,78.20
2019-03-08T20:00:16.369Z,78.70
2019-03-08T20:18:16.047Z,77.90
2019-03-08T20:24:18.408Z,77.20
2019-03-08T20:51:06.082Z,78.60
2019-03-08T20:54:08.135Z,79.10
2019-03-08T21:05:04.754Z,79.10
2019-03-08T21:07:39.718Z,79.30
2019-03-08T21:10:12.091Z,79.40
2019-03-08T21:12:42.546Z,79.50
2019-03-08T21:37:58.816Z,81.80
2019-03-08T21:40:45.726Z,81.80
2019-03-08T21:43:33.015Z,82.20
2019-03-08T21:46:10.030Z,82.30
2019-03-08T21:48:57.586Z,81.90
2019-03-08T21:51:36.461Z,81.80
2019-03-08T21:54:14.250Z,81.90
2019-03-08T21:56:46.022Z,81.70
2019-03-08T21:59:15.433Z,81.70
2019-03-08T22:02:03.839Z,82.10
2019-03-08T22:04:50.807Z,82.80
2019-03-08T22:07:48.186Z,83.00
2019-03-08T22:10:56.265Z,83.60
2019-03-08T22:13:41.824Z,83.80
2019-03-08T22:19:55.718Z,84.90
2019-03-08T22:29:09.337Z,85.60
2019-03-08T22:31:45.129Z,85.70
2019-03-08T22:35:06.537Z,85.80
2019-03-08T22:37:46.942Z,85.70
2019-03-08T22:40:24.889Z,85.70
2019-03-08T22:43:06.284Z,85.80
2019-03-08T22:45:48.529Z,86.10
2019-03-08T22:48:39.219Z,86.20
2019-03-08T22:51:18.467Z,86.30
2019-03-08T23:02:41.552Z,87.00
2019-03-08T23:57:30.936Z,87.10
